sensor_id;sensor_type;location;lat;lon;timestamp;temperature;humidity
38582;DHT22;24349;53.720;10.014;2022-07-24T00:00:25;12.50;99.90
38582;DHT22;24349;53.720;10.014;2022-07-24T00:02:50;12.50;99.90
38582;DHT22;24349;53.720;10.014;2022-07-24T00:05:16;12.50;99.90
38582;DHT22;24349;53.720;10.014;2022-07-24T00:07:42;12.50;99.90
38582;DHT22;24349;53.720;10.014;2022-07-24T00:10:10;12.50;99.90
38582;DHT22;24349;53.720;10.014;2022-07-24T00:12:36;12.50;99.90
38582;DHT22;24349;53.720;10.014;2022-07-24T00:15:03;12.40;99.90
38582;DHT22;24349;53.720;10.014;2022-07-24T00:17:29;12.40;99.90
38582;DHT22;24349;53.720;10.014;2022-07-24T00:19:55;12.40;99.90
38582;DHT22;24349;53.720;10.014;2022-07-24T00:22:21;12.40;99.90
38582;DHT22;24349;53.720;10.014;2022-07-24T00:24:47;12.30;99.90
38582;DHT22;24349;53.720;10.014;2022-07-24T00:27:13;12.30;99.90
38582;DHT22;24349;53.720;10.014;2022-07-24T00:29:38;12.30;99.90
38582;DHT22;24349;53.720;10.014;2022-07-24T00:32:04;12.30;99.90
38582;DHT22;24349;53.720;10.014;2022-07-24T00:34:30;12.30;99.90
38582;DHT22;24349;53.720;10.014;2022-07-24T00:36:55;12.30;99.90
38582;DHT22;24349;53.720;10.014;2022-07-24T00:39:21;12.30;99.90
38582;DHT22;24349;53.720;10.014;2022-07-24T00:41:47;12.20;99.90
38582;DHT22;24349;53.720;10.014;2022-07-24T00:44:15;12.10;99.90
38582;DHT22;24349;53.720;10.014;2022-07-24T00:46:42;12.00;99.90
38582;DHT22;24349;53.720;10.014;2022-07-24T00:49:13;12.10;99.90
38582;DHT22;24349;53.720;10.014;2022-07-24T00:51:40;12.10;99.90
38582;DHT22;24349;53.720;10.014;2022-07-24T00:54:07;12.10;99.90
38582;DHT22;24349;53.720;10.014;2022-07-24T00:56:33;12.10;99.90
38582;DHT22;24349;53.720;10.014;2022-07-24T00:59:03;12.10;99.90
38582;DHT22;24349;53.720;10.014;2022-07-24T01:01:29;12.10;99.90
38582;DHT22;24349;53.720;10.014;2022-07-24T01:03:55;12.00;99.90
38582;DHT22;24349;53.720;10.014;2022-07-24T01:06:22;12.00;99.90
38582;DHT22;24349;53.720;10.014;2022-07-24T01:08:48;12.00;99.90
38582;DHT22;24349;53.720;10.014;2022-07-24T01:11:14;12.00;99.90
38582;DHT22;24349;53.720;10.014;2022-07-24T01:13:40;12.00;99.90
38582;DHT22;24349;53.720;10.014;2022-07-24T01:16:07;11.90;99.90
38582;DHT22;24349;53.720;10.014;2022-07-24T01:18:33;11.90;99.90
38582;DHT22;24349;53.720;10.014;2022-07-24T01:20:59;11.80;99.90
38582;DHT22;24349;53.720;10.014;2022-07-24T01:23:25;11.80;99.90
38582;DHT22;24349;53.720;10.014;2022-07-24T01:25:51;11.90;99.90
38582;DHT22;24349;53.720;10.014;2022-07-24T01:28:17;11.80;99.90
38582;DHT22;24349;53.720;10.014;2022-07-24T01:30:43;11.80;99.90
38582;DHT22;24349;53.720;10.014;2022-07-24T01:33:09;11.70;99.90
38582;DHT22;24349;53.720;10.014;2022-07-24T01:35:35;11.80;99.90
38582;DHT22;24349;53.720;10.014;2022-07-24T01:38:00;11.80;99.90
38582;DHT22;24349;53.720;10.014;2022-07-24T01:40:26;11.70;99.90
38582;DHT22;24349;53.720;10.014;2022-07-24T01:42:52;11.70;99.90
38582;DHT22;24349;53.720;10.014;2022-07-24T01:45:18;11.70;99.90
38582;DHT22;24349;53.720;10.014;2022-07-24T01:47:44;11.70;99.90
38582;DHT22;24349;53.720;10.014;2022-07-24T01:50:11;11.70;99.90
38582;DHT22;24349;53.720;10.014;2022-07-24T01:52:37;11.70;99.90
38582;DHT22;24349;53.720;10.014;2022-07-24T01:55:03;11.60;99.90
38582;DHT22;24349;53.720;10.014;2022-07-24T01:57:30;11.50;99.90
38582;DHT22;24349;53.720;10.014;2022-07-24T01:59:57;11.50;99.90
38582;DHT22;24349;53.720;10.014;2022-07-24T02:02:23;11.60;99.90
38582;DHT22;24349;53.720;10.014;2022-07-24T02:04:48;11.50;99.90
38582;DHT22;24349;53.720;10.014;2022-07-24T02:07:14;11.50;99.90
38582;DHT22;24349;53.720;10.014;2022-07-24T02:09:40;11.60;99.90
38582;DHT22;24349;53.720;10.014;2022-07-24T02:12:06;11.60;99.90
38582;DHT22;24349;53.720;10.014;2022-07-24T02:14:32;11.60;99.90
38582;DHT22;24349;53.720;10.014;2022-07-24T02:16:57;11.60;99.90
38582;DHT22;24349;53.720;10.014;2022-07-24T02:19:23;11.50;99.90
38582;DHT22;24349;53.720;10.014;2022-07-24T02:21:50;11.50;99.90
38582;DHT22;24349;53.720;10.014;2022-07-24T02:24:15;11.50;99.90
38582;DHT22;24349;53.720;10.014;2022-07-24T02:26:41;11.50;99.90
38582;DHT22;24349;53.720;10.014;2022-07-24T02:29:07;11.50;99.90
38582;DHT22;24349;53.720;10.014;2022-07-24T02:31:32;11.50;99.90
38582;DHT22;24349;53.720;10.014;2022-07-24T02:33:58;11.30;99.90
38582;DHT22;24349;53.720;10.014;2022-07-24T02:36:24;11.30;99.90
38582;DHT22;24349;53.720;10.014;2022-07-24T02:38:50;11.30;99.90
38582;DHT22;24349;53.720;10.014;2022-07-24T02:41:16;11.40;99.90
38582;DHT22;24349;53.720;10.014;2022-07-24T02:43:42;11.40;99.90
38582;DHT22;24349;53.720;10.014;2022-07-24T02:46:08;11.40;99.90
38582;DHT22;24349;53.720;10.014;2022-07-24T02:48:33;11.40;99.90
38582;DHT22;24349;53.720;10.014;2022-07-24T02:50:59;11.40;99.90
38582;DHT22;24349;53.720;10.014;2022-07-24T02:53:25;11.20;99.90
38582;DHT22;24349;53.720;10.014;2022-07-24T02:55:50;11.30;99.90
38582;DHT22;24349;53.720;10.014;2022-07-24T02:58:16;11.30;99.90
38582;DHT22;24349;53.720;10.014;2022-07-24T03:00:42;11.40;99.90
38582;DHT22;24349;53.720;10.014;2022-07-24T03:03:07;11.30;99.90
38582;DHT22;24349;53.720;10.014;2022-07-24T03:05:33;11.20;99.90
38582;DHT22;24349;53.720;10.014;2022-07-24T03:07:59;11.30;99.90
38582;DHT22;24349;53.720;10.014;2022-07-24T03:10:24;11.30;99.90
38582;DHT22;24349;53.720;10.014;2022-07-24T03:12:50;11.30;99.90
38582;DHT22;24349;53.720;10.014;2022-07-24T03:15:16;11.30;99.90
38582;DHT22;24349;53.720;10.014;2022-07-24T03:17:53;11.10;99.90
38582;DHT22;24349;53.720;10.014;2022-07-24T03:20:20;11.20;99.90
38582;DHT22;24349;53.720;10.014;2022-07-24T03:22:46;11.20;99.90
38582;DHT22;24349;53.720;10.014;2022-07-24T03:25:12;11.10;99.90
38582;DHT22;24349;53.720;10.014;2022-07-24T03:27:38;11.20;99.90
38582;DHT22;24349;53.720;10.014;2022-07-24T03:30:05;11.20;99.90
38582;DHT22;24349;53.720;10.014;2022-07-24T03:32:31;11.10;99.90
38582;DHT22;24349;53.720;10.014;2022-07-24T03:34:57;11.00;99.90
38582;DHT22;24349;53.720;10.014;2022-07-24T03:37:22;11.10;99.90
38582;DHT22;24349;53.720;10.014;2022-07-24T03:39:48;11.20;99.90
38582;DHT22;24349;53.720;10.014;2022-07-24T03:42:14;11.20;99.90
38582;DHT22;24349;53.720;10.014;2022-07-24T03:44:40;11.20;99.90
38582;DHT22;24349;53.720;10.014;2022-07-24T03:47:05;11.20;99.90
38582;DHT22;24349;53.720;10.014;2022-07-24T03:49:31;11.30;99.90
38582;DHT22;24349;53.720;10.014;2022-07-24T03:51:57;11.30;99.90
38582;DHT22;24349;53.720;10.014;2022-07-24T03:54:23;11.20;99.90
38582;DHT22;24349;53.720;10.014;2022-07-24T03:56:50;11.20;99.90
38582;DHT22;24349;53.720;10.014;2022-07-24T03:59:15;11.20;99.90
38582;DHT22;24349;53.720;10.014;2022-07-24T04:01:41;11.20;99.90
38582;DHT22;24349;53.720;10.014;2022-07-24T04:04:07;11.40;99.90
38582;DHT22;24349;53.720;10.014;2022-07-24T04:06:33;11.40;99.90
38582;DHT22;24349;53.720;10.014;2022-07-24T04:09:01;11.40;99.90
38582;DHT22;24349;53.720;10.014;2022-07-24T04:11:27;11.40;99.90
38582;DHT22;24349;53.720;10.014;2022-07-24T04:13:52;11.50;99.90
38582;DHT22;24349;53.720;10.014;2022-07-24T04:16:18;11.70;99.90
38582;DHT22;24349;53.720;10.014;2022-07-24T04:18:44;11.80;99.90
38582;DHT22;24349;53.720;10.014;2022-07-24T04:21:10;11.90;99.90
38582;DHT22;24349;53.720;10.014;2022-07-24T04:23:36;12.00;99.90
38582;DHT22;24349;53.720;10.014;2022-07-24T04:26:02;12.20;99.90
38582;DHT22;24349;53.720;10.014;2022-07-24T04:28:29;12.20;99.90
38582;DHT22;24349;53.720;10.014;2022-07-24T04:30:55;12.30;99.90
38582;DHT22;24349;53.720;10.014;2022-07-24T04:33:20;12.40;99.90
38582;DHT22;24349;53.720;10.014;2022-07-24T04:35:46;12.50;99.90
38582;DHT22;24349;53.720;10.014;2022-07-24T04:38:12;12.60;99.90
38582;DHT22;24349;53.720;10.014;2022-07-24T04:40:38;12.70;99.90
38582;DHT22;24349;53.720;10.014;2022-07-24T04:43:04;12.70;99.90
38582;DHT22;24349;53.720;10.014;2022-07-24T04:45:31;12.70;99.90
38582;DHT22;24349;53.720;10.014;2022-07-24T04:47:56;12.80;99.90
38582;DHT22;24349;53.720;10.014;2022-07-24T04:50:22;12.80;99.90
38582;DHT22;24349;53.720;10.014;2022-07-24T04:52:48;12.90;99.90
38582;DHT22;24349;53.720;10.014;2022-07-24T04:55:13;13.10;99.90
38582;DHT22;24349;53.720;10.014;2022-07-24T04:57:39;13.20;99.90
38582;DHT22;24349;53.720;10.014;2022-07-24T05:00:07;13.30;99.90
38582;DHT22;24349;53.720;10.014;2022-07-24T05:02:34;13.40;99.90
38582;DHT22;24349;53.720;10.014;2022-07-24T05:05:00;13.40;99.90
38582;DHT22;24349;53.720;10.014;2022-07-24T05:07:26;13.60;99.90
38582;DHT22;24349;53.720;10.014;2022-07-24T05:09:52;13.70;99.90
38582;DHT22;24349;53.720;10.014;2022-07-24T05:12:17;13.80;99.90
38582;DHT22;24349;53.720;10.014;2022-07-24T05:14:43;14.00;99.90
38582;DHT22;24349;53.720;10.014;2022-07-24T05:17:09;14.10;99.90
38582;DHT22;24349;53.720;10.014;2022-07-24T05:19:34;14.20;99.90
38582;DHT22;24349;53.720;10.014;2022-07-24T05:22:00;14.30;99.90
38582;DHT22;24349;53.720;10.014;2022-07-24T05:24:26;14.40;99.90
38582;DHT22;24349;53.720;10.014;2022-07-24T05:26:52;14.50;99.90
38582;DHT22;24349;53.720;10.014;2022-07-24T05:29:18;14.80;99.90
38582;DHT22;24349;53.720;10.014;2022-07-24T05:31:44;15.00;99.90
38582;DHT22;24349;53.720;10.014;2022-07-24T05:34:09;15.30;99.90
38582;DHT22;24349;53.720;10.014;2022-07-24T05:36:35;15.60;99.90
38582;DHT22;24349;53.720;10.014;2022-07-24T05:39:01;15.60;99.90
38582;DHT22;24349;53.720;10.014;2022-07-24T05:41:27;15.50;99.90
38582;DHT22;24349;53.720;10.014;2022-07-24T05:43:53;15.80;99.90
38582;DHT22;24349;53.720;10.014;2022-07-24T05:46:19;15.90;99.90
38582;DHT22;24349;53.720;10.014;2022-07-24T05:48:45;16.00;99.90
38582;DHT22;24349;53.720;10.014;2022-07-24T05:51:11;15.90;99.90
38582;DHT22;24349;53.720;10.014;2022-07-24T05:53:37;16.20;99.90
38582;DHT22;24349;53.720;10.014;2022-07-24T05:56:03;16.40;99.90
38582;DHT22;24349;53.720;10.014;2022-07-24T05:58:29;16.40;99.90
38582;DHT22;24349;53.720;10.014;2022-07-24T06:00:55;16.80;99.90
38582;DHT22;24349;53.720;10.014;2022-07-24T06:03:21;16.80;99.90
38582;DHT22;24349;53.720;10.014;2022-07-24T06:05:47;16.70;99.90
38582;DHT22;24349;53.720;10.014;2022-07-24T06:08:12;16.60;99.90
38582;DHT22;24349;53.720;10.014;2022-07-24T06:10:38;16.70;99.90
38582;DHT22;24349;53.720;10.014;2022-07-24T06:13:04;17.00;99.90
38582;DHT22;24349;53.720;10.014;2022-07-24T06:15:30;17.20;99.90
38582;DHT22;24349;53.720;10.014;2022-07-24T06:17:55;17.50;99.90
38582;DHT22;24349;53.720;10.014;2022-07-24T06:20:21;17.60;99.90
38582;DHT22;24349;53.720;10.014;2022-07-24T06:22:47;17.70;99.90
38582;DHT22;24349;53.720;10.014;2022-07-24T06:25:13;18.00;99.90
38582;DHT22;24349;53.720;10.014;2022-07-24T06:27:45;18.10;99.90
38582;DHT22;24349;53.720;10.014;2022-07-24T06:30:15;18.10;99.90
38582;DHT22;24349;53.720;10.014;2022-07-24T06:32:42;18.30;99.90
38582;DHT22;24349;53.720;10.014;2022-07-24T06:35:08;18.40;99.90
38582;DHT22;24349;53.720;10.014;2022-07-24T06:37:34;18.20;99.90
38582;DHT22;24349;53.720;10.014;2022-07-24T06:40:00;18.20;99.90
38582;DHT22;24349;53.720;10.014;2022-07-24T06:42:26;18.10;99.90
38582;DHT22;24349;53.720;10.014;2022-07-24T06:44:51;18.30;99.90
38582;DHT22;24349;53.720;10.014;2022-07-24T06:47:17;18.70;99.90
38582;DHT22;24349;53.720;10.014;2022-07-24T06:49:43;18.60;99.90
38582;DHT22;24349;53.720;10.014;2022-07-24T06:52:08;18.50;99.90
38582;DHT22;24349;53.720;10.014;2022-07-24T06:54:34;18.80;99.90
38582;DHT22;24349;53.720;10.014;2022-07-24T06:56:59;18.40;99.90
38582;DHT22;24349;53.720;10.014;2022-07-24T06:59:25;18.50;99.90
38582;DHT22;24349;53.720;10.014;2022-07-24T07:01:51;18.90;99.90
38582;DHT22;24349;53.720;10.014;2022-07-24T07:04:17;19.70;99.90
38582;DHT22;24349;53.720;10.014;2022-07-24T07:06:42;20.30;99.90
38582;DHT22;24349;53.720;10.014;2022-07-24T07:09:08;20.20;99.90
38582;DHT22;24349;53.720;10.014;2022-07-24T07:11:34;20.30;99.90
38582;DHT22;24349;53.720;10.014;2022-07-24T07:13:59;20.30;99.90
38582;DHT22;24349;53.720;10.014;2022-07-24T07:16:25;20.20;99.90
38582;DHT22;24349;53.720;10.014;2022-07-24T07:18:51;20.10;99.90
38582;DHT22;24349;53.720;10.014;2022-07-24T07:21:16;20.10;99.90
38582;DHT22;24349;53.720;10.014;2022-07-24T07:23:42;20.70;99.90
38582;DHT22;24349;53.720;10.014;2022-07-24T07:26:08;21.00;99.90
38582;DHT22;24349;53.720;10.014;2022-07-24T07:28:34;21.50;99.90
38582;DHT22;24349;53.720;10.014;2022-07-24T07:30:59;21.60;99.90
38582;DHT22;24349;53.720;10.014;2022-07-24T07:33:25;21.50;99.90
38582;DHT22;24349;53.720;10.014;2022-07-24T07:35:52;21.90;99.90
38582;DHT22;24349;53.720;10.014;2022-07-24T07:38:18;21.90;99.90
38582;DHT22;24349;53.720;10.014;2022-07-24T07:40:44;21.90;99.90
38582;DHT22;24349;53.720;10.014;2022-07-24T07:43:10;21.60;99.90
38582;DHT22;24349;53.720;10.014;2022-07-24T07:45:35;21.30;99.90
38582;DHT22;24349;53.720;10.014;2022-07-24T07:48:01;21.60;99.90
38582;DHT22;24349;53.720;10.014;2022-07-24T07:50:27;22.00;99.90
38582;DHT22;24349;53.720;10.014;2022-07-24T07:52:53;21.70;99.90
38582;DHT22;24349;53.720;10.014;2022-07-24T07:55:19;21.80;99.90
38582;DHT22;24349;53.720;10.014;2022-07-24T07:57:45;22.00;99.90
38582;DHT22;24349;53.720;10.014;2022-07-24T08:00:11;22.70;99.90
38582;DHT22;24349;53.720;10.014;2022-07-24T08:02:37;23.40;99.90
38582;DHT22;24349;53.720;10.014;2022-07-24T08:05:04;23.50;99.90
38582;DHT22;24349;53.720;10.014;2022-07-24T08:07:30;23.70;99.90
38582;DHT22;24349;53.720;10.014;2022-07-24T08:09:55;23.90;99.90
38582;DHT22;24349;53.720;10.014;2022-07-24T08:12:21;23.50;99.90
38582;DHT22;24349;53.720;10.014;2022-07-24T08:14:47;22.80;99.90
38582;DHT22;24349;53.720;10.014;2022-07-24T08:17:12;23.00;99.90
38582;DHT22;24349;53.720;10.014;2022-07-24T08:19:38;23.10;99.90
38582;DHT22;24349;53.720;10.014;2022-07-24T08:22:04;23.20;99.90
38582;DHT22;24349;53.720;10.014;2022-07-24T08:24:30;23.40;99.90
38582;DHT22;24349;53.720;10.014;2022-07-24T08:26:58;23.40;99.90
38582;DHT22;24349;53.720;10.014;2022-07-24T08:29:25;23.70;99.90
38582;DHT22;24349;53.720;10.014;2022-07-24T08:31:51;23.50;99.90
38582;DHT22;24349;53.720;10.014;2022-07-24T08:34:17;23.40;99.90
38582;DHT22;24349;53.720;10.014;2022-07-24T08:36:42;23.60;99.90
38582;DHT22;24349;53.720;10.014;2022-07-24T08:39:12;23.50;99.90
38582;DHT22;24349;53.720;10.014;2022-07-24T08:41:38;23.20;99.90
38582;DHT22;24349;53.720;10.014;2022-07-24T08:44:04;23.10;99.90
38582;DHT22;24349;53.720;10.014;2022-07-24T08:46:31;23.20;99.90
38582;DHT22;24349;53.720;10.014;2022-07-24T08:48:57;23.30;99.90
38582;DHT22;24349;53.720;10.014;2022-07-24T08:51:31;23.20;99.90
38582;DHT22;24349;53.720;10.014;2022-07-24T08:53:58;23.10;99.90
38582;DHT22;24349;53.720;10.014;2022-07-24T08:56:24;23.60;99.90
38582;DHT22;24349;53.720;10.014;2022-07-24T08:58:50;23.50;99.90
38582;DHT22;24349;53.720;10.014;2022-07-24T09:01:16;23.60;99.90
38582;DHT22;24349;53.720;10.014;2022-07-24T09:03:44;23.60;99.90
38582;DHT22;24349;53.720;10.014;2022-07-24T09:06:11;23.80;99.90
38582;DHT22;24349;53.720;10.014;2022-07-24T09:08:41;23.60;99.90
38582;DHT22;24349;53.720;10.014;2022-07-24T09:11:07;23.70;99.90
38582;DHT22;24349;53.720;10.014;2022-07-24T09:13:36;23.50;99.90
38582;DHT22;24349;53.720;10.014;2022-07-24T09:16:23;23.70;99.90
38582;DHT22;24349;53.720;10.014;2022-07-24T09:19:03;24.10;99.90
38582;DHT22;24349;53.720;10.014;2022-07-24T09:21:33;24.00;99.90
38582;DHT22;24349;53.720;10.014;2022-07-24T09:23:59;24.00;99.90
38582;DHT22;24349;53.720;10.014;2022-07-24T09:27:03;24.10;99.90
38582;DHT22;24349;53.720;10.014;2022-07-24T09:29:29;24.60;99.90
38582;DHT22;24349;53.720;10.014;2022-07-24T09:31:58;24.50;99.90
38582;DHT22;24349;53.720;10.014;2022-07-24T09:34:25;24.50;99.90
38582;DHT22;24349;53.720;10.014;2022-07-24T09:37:03;24.60;99.90
38582;DHT22;24349;53.720;10.014;2022-07-24T09:39:33;24.80;99.90
38582;DHT22;24349;53.720;10.014;2022-07-24T09:42:00;24.90;99.90
38582;DHT22;24349;53.720;10.014;2022-07-24T09:44:26;25.20;99.90
38582;DHT22;24349;53.720;10.014;2022-07-24T09:47:03;25.60;99.90
38582;DHT22;24349;53.720;10.014;2022-07-24T09:49:30;25.90;99.90
38582;DHT22;24349;53.720;10.014;2022-07-24T09:52:14;25.70;99.90
38582;DHT22;24349;53.720;10.014;2022-07-24T09:54:49;25.50;99.90
38582;DHT22;24349;53.720;10.014;2022-07-24T09:57:22;25.20;99.90
38582;DHT22;24349;53.720;10.014;2022-07-24T10:02:20;25.00;99.90
38582;DHT22;24349;53.720;10.014;2022-07-24T10:04:48;25.20;99.90
38582;DHT22;24349;53.720;10.014;2022-07-24T10:07:16;25.40;99.90
38582;DHT22;24349;53.720;10.014;2022-07-24T10:09:44;25.50;99.90
38582;DHT22;24349;53.720;10.014;2022-07-24T10:12:16;25.70;99.90
38582;DHT22;24349;53.720;10.014;2022-07-24T10:14:43;25.90;99.90
38582;DHT22;24349;53.720;10.014;2022-07-24T10:17:11;25.60;99.90
38582;DHT22;24349;53.720;10.014;2022-07-24T10:19:45;25.70;99.90
38582;DHT22;24349;53.720;10.014;2022-07-24T10:22:20;25.90;99.90
38582;DHT22;24349;53.720;10.014;2022-07-24T10:25:05;25.90;99.90
38582;DHT22;24349;53.720;10.014;2022-07-24T10:27:36;25.80;99.90
38582;DHT22;24349;53.720;10.014;2022-07-24T10:30:07;26.00;99.90
38582;DHT22;24349;53.720;10.014;2022-07-24T10:32:35;26.60;99.90
38582;DHT22;24349;53.720;10.014;2022-07-24T10:40:55;27.30;99.90
38582;DHT22;24349;53.720;10.014;2022-07-24T10:45:42;27.30;99.90
38582;DHT22;24349;53.720;10.014;2022-07-24T10:53:44;28.10;99.90
38582;DHT22;24349;53.720;10.014;2022-07-24T10:56:38;28.20;99.90
38582;DHT22;24349;53.720;10.014;2022-07-24T10:59:07;28.00;99.90
38582;DHT22;24349;53.720;10.014;2022-07-24T11:09:16;28.00;99.90
38582;DHT22;24349;53.720;10.014;2022-07-24T11:12:02;28.30;99.90
38582;DHT22;24349;53.720;10.014;2022-07-24T11:17:41;28.50;99.50
38582;DHT22;24349;53.720;10.014;2022-07-24T11:20:13;28.40;99.90
38582;DHT22;24349;53.720;10.014;2022-07-24T11:27:52;27.80;99.90
38582;DHT22;24349;53.720;10.014;2022-07-24T11:30:19;27.70;99.90
38582;DHT22;24349;53.720;10.014;2022-07-24T11:32:46;27.70;99.60
38582;DHT22;24349;53.720;10.014;2022-07-24T11:35:12;28.20;99.70
38582;DHT22;24349;53.720;10.014;2022-07-24T11:37:41;28.20;99.40
38582;DHT22;24349;53.720;10.014;2022-07-24T11:40:13;28.30;99.90
38582;DHT22;24349;53.720;10.014;2022-07-24T11:42:39;28.50;99.40
38582;DHT22;24349;53.720;10.014;2022-07-24T11:45:05;28.20;99.30
38582;DHT22;24349;53.720;10.014;2022-07-24T11:47:31;28.40;99.10
38582;DHT22;24349;53.720;10.014;2022-07-24T11:49:59;28.40;99.20
38582;DHT22;24349;53.720;10.014;2022-07-24T11:52:32;28.00;99.10
38582;DHT22;24349;53.720;10.014;2022-07-24T11:55:10;27.90;99.40
38582;DHT22;24349;53.720;10.014;2022-07-24T11:57:39;28.10;99.40
38582;DHT22;24349;53.720;10.014;2022-07-24T12:00:11;28.70;99.30
38582;DHT22;24349;53.720;10.014;2022-07-24T12:02:46;28.90;98.90
38582;DHT22;24349;53.720;10.014;2022-07-24T12:05:12;29.40;98.10
38582;DHT22;24349;53.720;10.014;2022-07-24T12:07:38;29.10;98.30
38582;DHT22;24349;53.720;10.014;2022-07-24T12:10:04;29.20;97.90
38582;DHT22;24349;53.720;10.014;2022-07-24T12:12:36;29.30;98.00
38582;DHT22;24349;53.720;10.014;2022-07-24T12:15:11;28.70;98.20
38582;DHT22;24349;53.720;10.014;2022-07-24T12:17:58;28.80;98.30
38582;DHT22;24349;53.720;10.014;2022-07-24T12:20:38;28.10;99.00
38582;DHT22;24349;53.720;10.014;2022-07-24T12:23:14;28.20;98.90
38582;DHT22;24349;53.720;10.014;2022-07-24T12:25:41;28.40;99.20
38582;DHT22;24349;53.720;10.014;2022-07-24T12:28:13;28.50;99.00
38582;DHT22;24349;53.720;10.014;2022-07-24T12:30:43;28.60;98.10
38582;DHT22;24349;53.720;10.014;2022-07-24T12:33:25;28.20;97.90
38582;DHT22;24349;53.720;10.014;2022-07-24T12:35:56;28.30;98.30
38582;DHT22;24349;53.720;10.014;2022-07-24T12:38:52;28.40;98.10
38582;DHT22;24349;53.720;10.014;2022-07-24T12:41:19;28.90;98.10
38582;DHT22;24349;53.720;10.014;2022-07-24T12:44:01;29.00;97.80
38582;DHT22;24349;53.720;10.014;2022-07-24T12:46:33;29.00;97.60
38582;DHT22;24349;53.720;10.014;2022-07-24T12:49:19;29.00;98.10
38582;DHT22;24349;53.720;10.014;2022-07-24T12:51:53;28.70;97.70
38582;DHT22;24349;53.720;10.014;2022-07-24T12:54:35;28.40;98.10
38582;DHT22;24349;53.720;10.014;2022-07-24T12:57:11;28.30;98.10
38582;DHT22;24349;53.720;10.014;2022-07-24T12:59:45;28.80;98.00
38582;DHT22;24349;53.720;10.014;2022-07-24T13:02:22;28.60;98.00
38582;DHT22;24349;53.720;10.014;2022-07-24T13:04:53;28.70;97.30
38582;DHT22;24349;53.720;10.014;2022-07-24T13:07:21;29.10;97.70
38582;DHT22;24349;53.720;10.014;2022-07-24T13:09:48;28.80;97.50
38582;DHT22;24349;53.720;10.014;2022-07-24T13:12:14;29.40;97.60
38582;DHT22;24349;53.720;10.014;2022-07-24T13:14:40;29.90;96.90
38582;DHT22;24349;53.720;10.014;2022-07-24T13:19:40;30.10;95.70
38582;DHT22;24349;53.720;10.014;2022-07-24T13:22:07;30.20;95.80
38582;DHT22;24349;53.720;10.014;2022-07-24T13:24:33;30.40;95.50
38582;DHT22;24349;53.720;10.014;2022-07-24T13:26:59;30.20;95.40
38582;DHT22;24349;53.720;10.014;2022-07-24T13:29:26;30.30;95.50
38582;DHT22;24349;53.720;10.014;2022-07-24T13:31:53;30.20;95.00
38582;DHT22;24349;53.720;10.014;2022-07-24T13:34:19;30.30;95.30
38582;DHT22;24349;53.720;10.014;2022-07-24T13:36:45;30.60;94.20
38582;DHT22;24349;53.720;10.014;2022-07-24T13:39:12;30.90;94.00
38582;DHT22;24349;53.720;10.014;2022-07-24T13:41:38;31.40;93.70
38582;DHT22;24349;53.720;10.014;2022-07-24T13:44:05;31.40;93.60
38582;DHT22;24349;53.720;10.014;2022-07-24T13:46:32;30.80;92.90
38582;DHT22;24349;53.720;10.014;2022-07-24T13:49:00;31.00;93.30
38582;DHT22;24349;53.720;10.014;2022-07-24T13:51:27;31.70;93.30
38582;DHT22;24349;53.720;10.014;2022-07-24T13:53:53;31.40;92.40
38582;DHT22;24349;53.720;10.014;2022-07-24T13:56:19;31.00;92.90
38582;DHT22;24349;53.720;10.014;2022-07-24T13:58:44;30.90;92.90
38582;DHT22;24349;53.720;10.014;2022-07-24T14:01:11;31.10;92.70
38582;DHT22;24349;53.720;10.014;2022-07-24T14:03:38;31.50;92.30
38582;DHT22;24349;53.720;10.014;2022-07-24T14:06:08;31.30;91.80
38582;DHT22;24349;53.720;10.014;2022-07-24T14:08:34;31.60;91.90
38582;DHT22;24349;53.720;10.014;2022-07-24T14:10:59;32.20;91.30
38582;DHT22;24349;53.720;10.014;2022-07-24T14:13:25;31.30;91.40
38582;DHT22;24349;53.720;10.014;2022-07-24T14:15:51;31.00;91.70
38582;DHT22;24349;53.720;10.014;2022-07-24T14:18:17;31.10;91.80
38582;DHT22;24349;53.720;10.014;2022-07-24T14:20:43;31.50;91.70
38582;DHT22;24349;53.720;10.014;2022-07-24T14:23:08;32.00;90.80
38582;DHT22;24349;53.720;10.014;2022-07-24T14:25:34;32.70;90.40
38582;DHT22;24349;53.720;10.014;2022-07-24T14:28:00;32.30;90.50
38582;DHT22;24349;53.720;10.014;2022-07-24T14:30:26;32.30;90.00
38582;DHT22;24349;53.720;10.014;2022-07-24T14:32:51;32.50;89.80
38582;DHT22;24349;53.720;10.014;2022-07-24T14:35:17;31.60;89.50
38582;DHT22;24349;53.720;10.014;2022-07-24T14:37:43;31.80;90.00
38582;DHT22;24349;53.720;10.014;2022-07-24T14:40:09;31.50;90.10
38582;DHT22;24349;53.720;10.014;2022-07-24T14:42:35;31.50;89.10
38582;DHT22;24349;53.720;10.014;2022-07-24T14:45:01;31.50;89.30
38582;DHT22;24349;53.720;10.014;2022-07-24T14:47:27;31.70;89.00
38582;DHT22;24349;53.720;10.014;2022-07-24T14:49:53;31.50;89.00
38582;DHT22;24349;53.720;10.014;2022-07-24T14:52:21;31.40;88.70
38582;DHT22;24349;53.720;10.014;2022-07-24T14:54:46;31.60;88.90
38582;DHT22;24349;53.720;10.014;2022-07-24T14:57:13;32.00;88.30
38582;DHT22;24349;53.720;10.014;2022-07-24T14:59:38;31.80;88.50
38582;DHT22;24349;53.720;10.014;2022-07-24T15:02:04;31.40;87.50
38582;DHT22;24349;53.720;10.014;2022-07-24T15:04:30;31.00;88.00
38582;DHT22;24349;53.720;10.014;2022-07-24T15:06:56;31.10;88.40
38582;DHT22;24349;53.720;10.014;2022-07-24T15:09:21;31.30;88.60
38582;DHT22;24349;53.720;10.014;2022-07-24T15:11:47;31.70;89.20
38582;DHT22;24349;53.720;10.014;2022-07-24T15:14:13;31.80;88.10
38582;DHT22;24349;53.720;10.014;2022-07-24T15:16:39;31.20;88.30
38582;DHT22;24349;53.720;10.014;2022-07-24T15:19:04;31.40;88.70
38582;DHT22;24349;53.720;10.014;2022-07-24T15:21:30;31.30;89.10
38582;DHT22;24349;53.720;10.014;2022-07-24T15:23:56;30.60;88.30
38582;DHT22;24349;53.720;10.014;2022-07-24T15:26:21;30.30;89.10
38582;DHT22;24349;53.720;10.014;2022-07-24T15:28:47;30.40;89.30
38582;DHT22;24349;53.720;10.014;2022-07-24T15:31:13;30.70;89.00
38582;DHT22;24349;53.720;10.014;2022-07-24T15:33:42;30.90;88.40
38582;DHT22;24349;53.720;10.014;2022-07-24T15:36:08;31.00;88.60
38582;DHT22;24349;53.720;10.014;2022-07-24T15:38:34;30.30;89.50
38582;DHT22;24349;53.720;10.014;2022-07-24T15:41:00;30.40;89.60
38582;DHT22;24349;53.720;10.014;2022-07-24T15:43:25;30.90;90.00
38582;DHT22;24349;53.720;10.014;2022-07-24T15:45:51;31.50;89.00
38582;DHT22;24349;53.720;10.014;2022-07-24T15:48:17;31.40;88.30
38582;DHT22;24349;53.720;10.014;2022-07-24T15:50:42;31.10;88.70